sensor_id;sensor_type;location;lat;lon;timestamp;pressure;altitude;pressure_sealevel;temperature;humidity
49463;BME280;35357;51.722;0.500;2022-08-21T00:01:18;101333.53;;;17.60;72.48
49463;BME280;35357;51.722;0.500;2022-08-21T00:03:45;101337.67;;;18.32;70.23
49463;BME280;35357;51.722;0.500;2022-08-21T00:06:13;101336.05;;;18.62;70.09
49463;BME280;35357;51.722;0.500;2022-08-21T00:08:41;101335.43;;;18.41;70.89
49463;BME280;35357;51.722;0.500;2022-08-21T00:11:09;101331.47;;;18.48;70.90
49463;BME280;35357;51.722;0.500;2022-08-21T00:13:36;101327.44;;;18.17;70.19
49463;BME280;35357;51.722;0.500;2022-08-21T00:16:04;101328.47;;;17.95;71.19
49463;BME280;35357;51.722;0.500;2022-08-21T00:18:32;101330.78;;;17.55;73.29
49463;BME280;35357;51.722;0.500;2022-08-21T00:20:59;101331.26;;;18.81;69.28
49463;BME280;35357;51.722;0.500;2022-08-21T00:23:25;101331.16;;;18.55;70.27
49463;BME280;35357;51.722;0.500;2022-08-21T00:25:53;101330.44;;;17.72;71.84
49463;BME280;35357;51.722;0.500;2022-08-21T00:28:21;101334.69;;;19.09;68.24
49463;BME280;35357;51.722;0.500;2022-08-21T00:30:48;101336.04;;;19.22;68.07
49463;BME280;35357;51.722;0.500;2022-08-21T00:33:16;101337.87;;;18.74;68.46
49463;BME280;35357;51.722;0.500;2022-08-21T00:35:43;101338.04;;;18.60;68.98
49463;BME280;35357;51.722;0.500;2022-08-21T00:38:10;101338.71;;;18.42;69.46
49463;BME280;35357;51.722;0.500;2022-08-21T00:40:40;101339.60;;;18.64;69.09
49463;BME280;35357;51.722;0.500;2022-08-21T00:43:10;101339.95;;;18.72;68.53
49463;BME280;35357;51.722;0.500;2022-08-21T00:45:37;101337.92;;;18.05;70.57
49463;BME280;35357;51.722;0.500;2022-08-21T00:48:05;101338.63;;;17.46;72.28
49463;BME280;35357;51.722;0.500;2022-08-21T00:50:38;101342.65;;;18.35;70.66
49463;BME280;35357;51.722;0.500;2022-08-21T00:53:06;101339.82;;;17.87;72.25
49463;BME280;35357;51.722;0.500;2022-08-21T00:55:35;101338.56;;;17.04;74.04
49463;BME280;35357;51.722;0.500;2022-08-21T00:58:04;101340.62;;;19.26;68.27
49463;BME280;35357;51.722;0.500;2022-08-21T01:00:36;101337.09;;;18.99;67.95
49463;BME280;35357;51.722;0.500;2022-08-21T01:03:08;101338.43;;;18.62;68.82
49463;BME280;35357;51.722;0.500;2022-08-21T01:05:37;101335.92;;;18.47;69.52
49463;BME280;35357;51.722;0.500;2022-08-21T01:08:06;101336.64;;;19.03;66.29
49463;BME280;35357;51.722;0.500;2022-08-21T01:10:36;101336.83;;;18.77;66.84
49463;BME280;35357;51.722;0.500;2022-08-21T01:13:05;101338.27;;;19.26;66.55
49463;BME280;35357;51.722;0.500;2022-08-21T01:15:36;101335.22;;;18.43;67.46
49463;BME280;35357;51.722;0.500;2022-08-21T01:18:05;101333.60;;;18.57;68.18
49463;BME280;35357;51.722;0.500;2022-08-21T01:20:33;101327.00;;;18.61;67.31
49463;BME280;35357;51.722;0.500;2022-08-21T01:23:02;101320.05;;;19.65;65.56
49463;BME280;35357;51.722;0.500;2022-08-21T01:25:31;101324.06;;;19.30;65.85
49463;BME280;35357;51.722;0.500;2022-08-21T01:28:03;101334.06;;;19.34;65.21
49463;BME280;35357;51.722;0.500;2022-08-21T01:30:34;101331.69;;;19.64;64.41
49463;BME280;35357;51.722;0.500;2022-08-21T01:33:02;101336.90;;;19.45;65.86
49463;BME280;35357;51.722;0.500;2022-08-21T01:35:30;101327.88;;;19.59;65.37
49463;BME280;35357;51.722;0.500;2022-08-21T01:37:57;101325.24;;;19.25;64.80
49463;BME280;35357;51.722;0.500;2022-08-21T01:40:24;101327.26;;;19.57;64.47
49463;BME280;35357;51.722;0.500;2022-08-21T01:42:52;101326.05;;;19.58;64.38
49463;BME280;35357;51.722;0.500;2022-08-21T01:45:19;101331.56;;;19.24;64.72
49463;BME280;35357;51.722;0.500;2022-08-21T01:47:47;101335.50;;;19.14;65.55
49463;BME280;35357;51.722;0.500;2022-08-21T01:50:17;101332.70;;;19.07;65.04
49463;BME280;35357;51.722;0.500;2022-08-21T01:52:45;101326.68;;;19.75;64.45
49463;BME280;35357;51.722;0.500;2022-08-21T01:55:14;101330.19;;;19.36;64.84
49463;BME280;35357;51.722;0.500;2022-08-21T01:57:41;101334.22;;;19.24;64.87
49463;BME280;35357;51.722;0.500;2022-08-21T02:00:12;101333.84;;;18.90;67.29
49463;BME280;35357;51.722;0.500;2022-08-21T02:02:40;101332.25;;;18.93;67.05
49463;BME280;35357;51.722;0.500;2022-08-21T02:05:09;101329.00;;;17.79;70.48
49463;BME280;35357;51.722;0.500;2022-08-21T02:07:38;101330.14;;;17.88;70.22
49463;BME280;35357;51.722;0.500;2022-08-21T02:10:08;101329.59;;;18.41;68.75
49463;BME280;35357;51.722;0.500;2022-08-21T02:12:36;101330.78;;;17.06;72.70
49463;BME280;35357;51.722;0.500;2022-08-21T02:15:05;101332.69;;;17.53;72.33
49463;BME280;35357;51.722;0.500;2022-08-21T02:17:43;101324.52;;;16.85;73.50
49463;BME280;35357;51.722;0.500;2022-08-21T02:20:16;101322.97;;;17.94;71.28
49463;BME280;35357;51.722;0.500;2022-08-21T02:22:44;101323.49;;;17.76;72.36
49463;BME280;35357;51.722;0.500;2022-08-21T02:25:11;101322.34;;;17.53;72.03
49463;BME280;35357;51.722;0.500;2022-08-21T02:27:40;101322.16;;;17.30;73.56
49463;BME280;35357;51.722;0.500;2022-08-21T02:30:10;101318.48;;;18.09;71.28
49463;BME280;35357;51.722;0.500;2022-08-21T02:32:38;101317.77;;;17.87;70.79
49463;BME280;35357;51.722;0.500;2022-08-21T02:35:06;101318.72;;;17.61;71.02
49463;BME280;35357;51.722;0.500;2022-08-21T02:37:34;101321.83;;;17.82;70.34
49463;BME280;35357;51.722;0.500;2022-08-21T02:40:09;101317.35;;;18.06;71.06
49463;BME280;35357;51.722;0.500;2022-08-21T02:42:37;101317.24;;;18.64;69.32
49463;BME280;35357;51.722;0.500;2022-08-21T02:45:06;101313.80;;;17.93;70.78
49463;BME280;35357;51.722;0.500;2022-08-21T02:47:34;101312.02;;;16.34;74.17
49463;BME280;35357;51.722;0.500;2022-08-21T02:50:03;101312.07;;;17.30;73.19
49463;BME280;35357;51.722;0.500;2022-08-21T02:52:31;101309.96;;;17.76;71.45
49463;BME280;35357;51.722;0.500;2022-08-21T02:54:58;101309.81;;;18.17;70.70
49463;BME280;35357;51.722;0.500;2022-08-21T02:57:25;101308.47;;;18.31;70.22
49463;BME280;35357;51.722;0.500;2022-08-21T02:59:51;101307.81;;;18.20;70.09
49463;BME280;35357;51.722;0.500;2022-08-21T03:02:19;101309.14;;;17.12;73.63
49463;BME280;35357;51.722;0.500;2022-08-21T03:04:47;101310.10;;;17.90;70.67
49463;BME280;35357;51.722;0.500;2022-08-21T03:07:15;101307.77;;;17.60;71.55
49463;BME280;35357;51.722;0.500;2022-08-21T03:09:42;101308.77;;;17.70;71.41
49463;BME280;35357;51.722;0.500;2022-08-21T03:12:10;101307.11;;;17.57;72.37
49463;BME280;35357;51.722;0.500;2022-08-21T03:14:36;101306.67;;;17.23;73.79
49463;BME280;35357;51.722;0.500;2022-08-21T03:17:03;101310.33;;;16.69;75.63
49463;BME280;35357;51.722;0.500;2022-08-21T03:19:31;101306.94;;;17.11;74.49
49463;BME280;35357;51.722;0.500;2022-08-21T03:21:58;101304.89;;;17.58;73.32
49463;BME280;35357;51.722;0.500;2022-08-21T03:24:26;101303.85;;;16.92;75.56
49463;BME280;35357;51.722;0.500;2022-08-21T03:26:52;101303.66;;;17.13;74.95
49463;BME280;35357;51.722;0.500;2022-08-21T03:29:20;101305.17;;;16.97;75.28
49463;BME280;35357;51.722;0.500;2022-08-21T03:31:47;101307.01;;;17.18;74.67
49463;BME280;35357;51.722;0.500;2022-08-21T03:34:15;101312.07;;;17.42;73.81
49463;BME280;35357;51.722;0.500;2022-08-21T03:36:42;101315.73;;;17.30;74.39
49463;BME280;35357;51.722;0.500;2022-08-21T03:39:09;101317.55;;;17.40;74.44
49463;BME280;35357;51.722;0.500;2022-08-21T03:41:36;101317.09;;;17.32;74.68
49463;BME280;35357;51.722;0.500;2022-08-21T03:44:03;101312.54;;;17.89;72.92
49463;BME280;35357;51.722;0.500;2022-08-21T03:46:31;101311.60;;;16.24;78.05
49463;BME280;35357;51.722;0.500;2022-08-21T03:48:57;101310.73;;;16.62;77.39
49463;BME280;35357;51.722;0.500;2022-08-21T03:51:24;101304.85;;;17.54;74.31
49463;BME280;35357;51.722;0.500;2022-08-21T03:53:51;101298.03;;;17.72;74.28
49463;BME280;35357;51.722;0.500;2022-08-21T03:56:19;101298.50;;;17.67;73.78
49463;BME280;35357;51.722;0.500;2022-08-21T03:58:45;101304.22;;;18.05;73.13
49463;BME280;35357;51.722;0.500;2022-08-21T04:01:13;101307.55;;;16.77;77.03
49463;BME280;35357;51.722;0.500;2022-08-21T04:03:40;101309.29;;;17.82;73.70
49463;BME280;35357;51.722;0.500;2022-08-21T04:06:08;101312.92;;;17.71;74.19
49463;BME280;35357;51.722;0.500;2022-08-21T04:08:35;101314.65;;;17.58;72.77
49463;BME280;35357;51.722;0.500;2022-08-21T04:11:02;101321.76;;;18.00;72.19
49463;BME280;35357;51.722;0.500;2022-08-21T04:13:30;101322.03;;;18.62;70.49
49463;BME280;35357;51.722;0.500;2022-08-21T04:15:58;101324.00;;;18.58;70.30
49463;BME280;35357;51.722;0.500;2022-08-21T04:18:25;101320.26;;;18.35;71.18
49463;BME280;35357;51.722;0.500;2022-08-21T04:20:54;101323.54;;;17.93;73.13
49463;BME280;35357;51.722;0.500;2022-08-21T04:23:22;101328.06;;;18.77;70.06
49463;BME280;35357;51.722;0.500;2022-08-21T04:25:51;101330.49;;;18.34;70.50
49463;BME280;35357;51.722;0.500;2022-08-21T04:28:19;101336.06;;;18.70;69.91
49463;BME280;35357;51.722;0.500;2022-08-21T04:30:46;101339.05;;;18.64;70.28
49463;BME280;35357;51.722;0.500;2022-08-21T04:33:14;101340.09;;;18.71;69.73
49463;BME280;35357;51.722;0.500;2022-08-21T04:35:41;101341.85;;;17.97;70.90
49463;BME280;35357;51.722;0.500;2022-08-21T04:38:09;101340.13;;;18.25;71.16
49463;BME280;35357;51.722;0.500;2022-08-21T04:40:36;101336.08;;;18.06;70.75
49463;BME280;35357;51.722;0.500;2022-08-21T04:43:06;101332.17;;;18.41;70.12
49463;BME280;35357;51.722;0.500;2022-08-21T04:45:36;101334.44;;;17.49;72.95
49463;BME280;35357;51.722;0.500;2022-08-21T04:48:07;101338.67;;;18.25;70.68
49463;BME280;35357;51.722;0.500;2022-08-21T04:50:39;101338.79;;;17.69;71.72
49463;BME280;35357;51.722;0.500;2022-08-21T04:53:15;101342.51;;;18.53;71.42
49463;BME280;35357;51.722;0.500;2022-08-21T04:55:43;101345.74;;;17.96;71.49
49463;BME280;35357;51.722;0.500;2022-08-21T04:58:12;101348.07;;;18.76;70.34
49463;BME280;35357;51.722;0.500;2022-08-21T05:00:41;101349.31;;;17.52;73.74
49463;BME280;35357;51.722;0.500;2022-08-21T05:03:09;101348.77;;;18.34;72.27
49463;BME280;35357;51.722;0.500;2022-08-21T05:05:37;101350.35;;;17.79;72.40
49463;BME280;35357;51.722;0.500;2022-08-21T05:08:06;101354.81;;;17.86;72.49
49463;BME280;35357;51.722;0.500;2022-08-21T05:10:34;101355.35;;;17.50;72.94
49463;BME280;35357;51.722;0.500;2022-08-21T05:13:02;101358.40;;;17.97;73.38
49463;BME280;35357;51.722;0.500;2022-08-21T05:15:30;101359.90;;;17.84;73.37
49463;BME280;35357;51.722;0.500;2022-08-21T05:17:57;101357.25;;;18.07;73.29
49463;BME280;35357;51.722;0.500;2022-08-21T05:20:24;101354.09;;;17.70;74.11
49463;BME280;35357;51.722;0.500;2022-08-21T05:22:52;101349.49;;;18.08;72.68
49463;BME280;35357;51.722;0.500;2022-08-21T05:25:19;101344.87;;;18.30;72.86
49463;BME280;35357;51.722;0.500;2022-08-21T05:27:47;101348.00;;;17.77;73.55
49463;BME280;35357;51.722;0.500;2022-08-21T05:30:14;101340.61;;;18.10;72.80
49463;BME280;35357;51.722;0.500;2022-08-21T05:32:41;101343.37;;;18.20;71.59
49463;BME280;35357;51.722;0.500;2022-08-21T05:35:08;101347.45;;;18.63;70.23
49463;BME280;35357;51.722;0.500;2022-08-21T05:37:35;101348.13;;;17.86;72.15
49463;BME280;35357;51.722;0.500;2022-08-21T05:40:04;66588.06;;;14.75;81.20
49463;BME280;35357;51.722;0.500;2022-08-21T05:42:32;101353.30;;;18.30;72.02
49463;BME280;35357;51.722;0.500;2022-08-21T05:44:59;101351.78;;;18.46;71.73
49463;BME280;35357;51.722;0.500;2022-08-21T05:47:26;101350.19;;;17.94;72.29
49463;BME280;35357;51.722;0.500;2022-08-21T05:49:54;101346.23;;;17.98;72.07
49463;BME280;35357;51.722;0.500;2022-08-21T05:52:22;101348.28;;;17.71;72.97
49463;BME280;35357;51.722;0.500;2022-08-21T05:54:49;101351.17;;;18.00;73.47
49463;BME280;35357;51.722;0.500;2022-08-21T05:57:16;101352.96;;;17.86;74.12
49463;BME280;35357;51.722;0.500;2022-08-21T05:59:43;101356.15;;;17.63;74.17
49463;BME280;35357;51.722;0.500;2022-08-21T06:02:10;101355.60;;;18.20;72.61
49463;BME280;35357;51.722;0.500;2022-08-21T06:04:38;101359.06;;;17.35;74.75
49463;BME280;35357;51.722;0.500;2022-08-21T06:07:06;101363.58;;;18.19;73.93
49463;BME280;35357;51.722;0.500;2022-08-21T06:09:34;101368.36;;;17.74;73.39
49463;BME280;35357;51.722;0.500;2022-08-21T06:12:04;101369.71;;;18.53;72.73
49463;BME280;35357;51.722;0.500;2022-08-21T06:14:32;101377.46;;;18.43;72.60
49463;BME280;35357;51.722;0.500;2022-08-21T06:17:02;101381.54;;;18.34;72.92
49463;BME280;35357;51.722;0.500;2022-08-21T06:19:31;101388.11;;;17.39;76.52
49463;BME280;35357;51.722;0.500;2022-08-21T06:21:59;101388.66;;;17.60;75.15
49463;BME280;35357;51.722;0.500;2022-08-21T06:24:26;101390.02;;;17.23;76.20
49463;BME280;35357;51.722;0.500;2022-08-21T06:26:54;101390.93;;;17.85;75.35
49463;BME280;35357;51.722;0.500;2022-08-21T06:29:22;101387.16;;;16.64;78.56
49463;BME280;35357;51.722;0.500;2022-08-21T06:31:50;101391.22;;;17.50;76.76
49463;BME280;35357;51.722;0.500;2022-08-21T06:34:18;101387.47;;;17.56;75.74
49463;BME280;35357;51.722;0.500;2022-08-21T06:36:46;101389.33;;;18.18;75.50
49463;BME280;35357;51.722;0.500;2022-08-21T06:39:13;101388.10;;;17.72;76.46
49463;BME280;35357;51.722;0.500;2022-08-21T06:41:40;101385.19;;;17.77;76.36
49463;BME280;35357;51.722;0.500;2022-08-21T06:44:08;101385.42;;;16.25;80.67
49463;BME280;35357;51.722;0.500;2022-08-21T06:46:35;101381.34;;;15.73;83.63
49463;BME280;35357;51.722;0.500;2022-08-21T06:49:03;101381.04;;;16.57;82.31
49463;BME280;35357;51.722;0.500;2022-08-21T06:51:31;101384.66;;;16.76;81.18
49463;BME280;35357;51.722;0.500;2022-08-21T06:53:58;101388.53;;;16.36;83.14
49463;BME280;35357;51.722;0.500;2022-08-21T06:56:25;101392.51;;;17.06;80.01
49463;BME280;35357;51.722;0.500;2022-08-21T06:58:53;101387.75;;;17.02;79.90
49463;BME280;35357;51.722;0.500;2022-08-21T07:01:23;101381.65;;;17.92;77.23
49463;BME280;35357;51.722;0.500;2022-08-21T07:03:50;101380.80;;;18.72;74.03
49463;BME280;35357;51.722;0.500;2022-08-21T07:06:18;101380.92;;;18.73;73.78
49463;BME280;35357;51.722;0.500;2022-08-21T07:08:45;101375.84;;;17.54;77.31
49463;BME280;35357;51.722;0.500;2022-08-21T07:11:17;101374.41;;;18.22;76.38
49463;BME280;35357;51.722;0.500;2022-08-21T07:13:44;101372.54;;;19.36;71.63
49463;BME280;35357;51.722;0.500;2022-08-21T07:16:11;101375.29;;;19.58;70.47
49463;BME280;35357;51.722;0.500;2022-08-21T07:18:38;101380.38;;;19.35;69.37
49463;BME280;35357;51.722;0.500;2022-08-21T07:21:06;101378.56;;;19.78;69.85
49463;BME280;35357;51.722;0.500;2022-08-21T07:23:38;101369.41;;;19.64;68.80
49463;BME280;35357;51.722;0.500;2022-08-21T07:26:06;101367.24;;;20.72;65.64
49463;BME280;35357;51.722;0.500;2022-08-21T07:28:34;101364.39;;;20.19;66.05
49463;BME280;35357;51.722;0.500;2022-08-21T07:31:02;101365.41;;;19.41;68.31
49463;BME280;35357;51.722;0.500;2022-08-21T07:33:32;101365.51;;;19.30;69.73
49463;BME280;35357;51.722;0.500;2022-08-21T07:36:00;101359.44;;;19.50;67.94
49463;BME280;35357;51.722;0.500;2022-08-21T07:38:27;101356.05;;;20.05;68.43
49463;BME280;35357;51.722;0.500;2022-08-21T07:40:56;101355.17;;;19.96;67.18
49463;BME280;35357;51.722;0.500;2022-08-21T07:43:24;101349.49;;;20.15;66.18
49463;BME280;35357;51.722;0.500;2022-08-21T07:45:52;101344.99;;;21.14;63.82
49463;BME280;35357;51.722;0.500;2022-08-21T07:48:20;101339.98;;;21.14;63.21
49463;BME280;35357;51.722;0.500;2022-08-21T07:50:47;101336.00;;;19.56;66.35
49463;BME280;35357;51.722;0.500;2022-08-21T07:53:15;101333.07;;;20.21;63.89
49463;BME280;35357;51.722;0.500;2022-08-21T07:55:43;101344.38;;;18.81;68.31
49463;BME280;35357;51.722;0.500;2022-08-21T07:58:09;101342.69;;;20.08;65.44
49463;BME280;35357;51.722;0.500;2022-08-21T08:00:36;101355.93;;;20.48;63.99
49463;BME280;35357;51.722;0.500;2022-08-21T08:03:04;101359.70;;;20.81;63.31
49463;BME280;35357;51.722;0.500;2022-08-21T08:05:32;101360.45;;;20.76;63.36
49463;BME280;35357;51.722;0.500;2022-08-21T08:07:59;101354.51;;;21.10;62.28
49463;BME280;35357;51.722;0.500;2022-08-21T08:10:27;101355.70;;;21.03;62.97
49463;BME280;35357;51.722;0.500;2022-08-21T08:12:54;101350.16;;;21.29;62.10
49463;BME280;35357;51.722;0.500;2022-08-21T08:15:24;101346.81;;;20.64;62.78
49463;BME280;35357;51.722;0.500;2022-08-21T08:17:51;101341.47;;;21.29;61.39
49463;BME280;35357;51.722;0.500;2022-08-21T08:20:19;101340.82;;;20.87;61.84
49463;BME280;35357;51.722;0.500;2022-08-21T08:22:46;101339.94;;;21.44;60.90
49463;BME280;35357;51.722;0.500;2022-08-21T08:25:15;101339.70;;;20.86;62.94
49463;BME280;35357;51.722;0.500;2022-08-21T08:27:42;101334.01;;;21.13;61.76
49463;BME280;35357;51.722;0.500;2022-08-21T08:30:12;101324.95;;;19.77;65.77
49463;BME280;35357;51.722;0.500;2022-08-21T08:32:40;101320.39;;;20.60;63.38
49463;BME280;35357;51.722;0.500;2022-08-21T08:35:09;101327.31;;;20.94;62.22
49463;BME280;35357;51.722;0.500;2022-08-21T08:37:37;101327.33;;;21.22;61.63
49463;BME280;35357;51.722;0.500;2022-08-21T08:40:06;101326.03;;;21.28;60.31
49463;BME280;35357;51.722;0.500;2022-08-21T08:42:35;101323.16;;;20.84;61.15
49463;BME280;35357;51.722;0.500;2022-08-21T08:45:06;101333.56;;;21.09;61.05
49463;BME280;35357;51.722;0.500;2022-08-21T08:47:38;101333.53;;;21.03;60.45
49463;BME280;35357;51.722;0.500;2022-08-21T08:50:08;101326.59;;;21.14;59.20
49463;BME280;35357;51.722;0.500;2022-08-21T08:52:43;101327.06;;;21.17;59.17
49463;BME280;35357;51.722;0.500;2022-08-21T08:55:15;101324.70;;;20.39;61.23
49463;BME280;35357;51.722;0.500;2022-08-21T08:57:47;101324.46;;;20.35;60.98
49463;BME280;35357;51.722;0.500;2022-08-21T09:00:18;101322.95;;;20.26;60.68
49463;BME280;35357;51.722;0.500;2022-08-21T09:02:46;101319.71;;;21.13;58.54
49463;BME280;35357;51.722;0.500;2022-08-21T09:05:21;101317.88;;;20.54;60.05
49463;BME280;35357;51.722;0.500;2022-08-21T09:08:00;101317.76;;;21.48;59.14
49463;BME280;35357;51.722;0.500;2022-08-21T09:10:42;101326.82;;;18.33;65.85
49463;BME280;35357;51.722;0.500;2022-08-21T09:13:21;101321.09;;;20.35;59.72
49463;BME280;35357;51.722;0.500;2022-08-21T09:16:03;101318.14;;;20.12;61.80
49463;BME280;35357;51.722;0.500;2022-08-21T09:18:40;101318.28;;;19.43;64.42
49463;BME280;35357;51.722;0.500;2022-08-21T09:21:20;101315.82;;;20.71;60.17
49463;BME280;35357;51.722;0.500;2022-08-21T09:23:57;101319.07;;;20.11;62.35
49463;BME280;35357;51.722;0.500;2022-08-21T09:26:31;101317.12;;;20.73;57.81
49463;BME280;35357;51.722;0.500;2022-08-21T09:29:02;101321.36;;;20.39;59.48
49463;BME280;35357;51.722;0.500;2022-08-21T09:31:31;101321.13;;;19.67;60.51
49463;BME280;35357;51.722;0.500;2022-08-21T09:34:00;101323.86;;;20.68;58.73
49463;BME280;35357;51.722;0.500;2022-08-21T09:36:36;101316.13;;;19.93;59.12
49463;BME280;35357;51.722;0.500;2022-08-21T09:39:04;101319.33;;;20.47;59.89
49463;BME280;35357;51.722;0.500;2022-08-21T09:41:35;101320.83;;;20.52;56.90
49463;BME280;35357;51.722;0.500;2022-08-21T09:44:04;101323.08;;;21.12;55.17
49463;BME280;35357;51.722;0.500;2022-08-21T09:46:32;101326.92;;;22.13;52.56
49463;BME280;35357;51.722;0.500;2022-08-21T09:49:02;101333.12;;;21.26;52.62
49463;BME280;35357;51.722;0.500;2022-08-21T09:51:32;101332.76;;;20.68;52.49
49463;BME280;35357;51.722;0.500;2022-08-21T09:54:14;101333.93;;;21.08;51.98
49463;BME280;35357;51.722;0.500;2022-08-21T09:56:53;101336.33;;;20.00;54.79
49463;BME280;35357;51.722;0.500;2022-08-21T09:59:26;101337.67;;;20.90;53.67
49463;BME280;35357;51.722;0.500;2022-08-21T10:01:53;101341.15;;;20.86;53.76
49463;BME280;35357;51.722;0.500;2022-08-21T10:04:23;101352.94;;;22.07;51.72
49463;BME280;35357;51.722;0.500;2022-08-21T10:06:51;101358.20;;;21.38;53.72
49463;BME280;35357;51.722;0.500;2022-08-21T10:09:20;101357.59;;;19.87;57.50
49463;BME280;35357;51.722;0.500;2022-08-21T10:11:54;101360.26;;;19.83;57.69
49463;BME280;35357;51.722;0.500;2022-08-21T10:14:35;101362.06;;;20.24;55.41
49463;BME280;35357;51.722;0.500;2022-08-21T10:17:14;101360.83;;;20.17;55.55
49463;BME280;35357;51.722;0.500;2022-08-21T10:19:55;101360.71;;;20.21;55.03
49463;BME280;35357;51.722;0.500;2022-08-21T10:22:35;101358.93;;;21.71;51.60
49463;BME280;35357;51.722;0.500;2022-08-21T10:25:11;101357.12;;;21.78;51.64
49463;BME280;35357;51.722;0.500;2022-08-21T10:27:48;101357.10;;;22.84;49.29
49463;BME280;35357;51.722;0.500;2022-08-21T10:30:28;101352.31;;;21.81;51.39
49463;BME280;35357;51.722;0.500;2022-08-21T10:33:05;101347.88;;;21.70;51.41
49463;BME280;35357;51.722;0.500;2022-08-21T10:35:41;101350.04;;;21.26;52.27
49463;BME280;35357;51.722;0.500;2022-08-21T10:38:38;101346.99;;;22.35;50.37
49463;BME280;35357;51.722;0.500;2022-08-21T10:41:13;101350.93;;;21.21;52.63
49463;BME280;35357;51.722;0.500;2022-08-21T10:43:50;101355.20;;;21.39;52.01
49463;BME280;35357;51.722;0.500;2022-08-21T10:46:32;101355.46;;;21.72;51.38
49463;BME280;35357;51.722;0.500;2022-08-21T10:49:13;101350.27;;;23.18;49.35
49463;BME280;35357;51.722;0.500;2022-08-21T10:51:49;101348.09;;;23.26;48.54
49463;BME280;35357;51.722;0.500;2022-08-21T10:54:26;101349.97;;;23.43;47.23
49463;BME280;35357;51.722;0.500;2022-08-21T10:57:00;101345.53;;;24.13;47.03
49463;BME280;35357;51.722;0.500;2022-08-21T10:59:33;101340.45;;;22.74;47.59
49463;BME280;35357;51.722;0.500;2022-08-21T11:02:03;101338.46;;;23.91;45.76
49463;BME280;35357;51.722;0.500;2022-08-21T11:04:40;101336.07;;;22.40;46.81
49463;BME280;35357;51.722;0.500;2022-08-21T11:07:19;101335.97;;;23.69;46.31
49463;BME280;35357;51.722;0.500;2022-08-21T11:09:49;101330.68;;;24.28;45.23
49463;BME280;35357;51.722;0.500;2022-08-21T11:12:24;101324.62;;;25.09;43.61
49463;BME280;35357;51.722;0.500;2022-08-21T11:14:58;101332.79;;;23.64;45.64
49463;BME280;35357;51.722;0.500;2022-08-21T11:17:32;101328.01;;;24.41;43.58
49463;BME280;35357;51.722;0.500;2022-08-21T11:20:07;101330.22;;;23.70;44.00
49463;BME280;35357;51.722;0.500;2022-08-21T11:22:40;101327.27;;;22.57;46.55
49463;BME280;35357;51.722;0.500;2022-08-21T11:25:20;101327.24;;;23.63;45.96
49463;BME280;35357;51.722;0.500;2022-08-21T11:27:52;101321.25;;;24.42;44.22
49463;BME280;35357;51.722;0.500;2022-08-21T11:30:21;101323.34;;;24.84;43.09
49463;BME280;35357;51.722;0.500;2022-08-21T11:33:07;101323.41;;;23.71;45.34
49463;BME280;35357;51.722;0.500;2022-08-21T11:35:47;101327.32;;;23.27;44.38
49463;BME280;35357;51.722;0.500;2022-08-21T11:38:26;101324.24;;;23.86;43.54
49463;BME280;35357;51.722;0.500;2022-08-21T11:41:05;101331.84;;;22.94;44.42
49463;BME280;35357;51.722;0.500;2022-08-21T11:43:39;101337.80;;;23.56;42.88
49463;BME280;35357;51.722;0.500;2022-08-21T11:46:19;101336.39;;;22.64;44.08
49463;BME280;35357;51.722;0.500;2022-08-21T11:48:57;101338.97;;;24.22;42.63
49463;BME280;35357;51.722;0.500;2022-08-21T11:51:31;101329.71;;;24.61;41.07
49463;BME280;35357;51.722;0.500;2022-08-21T11:54:05;101329.99;;;24.47;40.42
49463;BME280;35357;51.722;0.500;2022-08-21T11:56:37;101331.52;;;23.52;41.71
49463;BME280;35357;51.722;0.500;2022-08-21T11:59:10;101329.43;;;24.50;40.58
49463;BME280;35357;51.722;0.500;2022-08-21T12:01:42;101336.17;;;22.69;42.79
49463;BME280;35357;51.722;0.500;2022-08-21T12:04:22;101335.79;;;23.33;42.42
49463;BME280;35357;51.722;0.500;2022-08-21T12:06:50;101332.84;;;23.54;43.22
49463;BME280;35357;51.722;0.500;2022-08-21T12:09:36;101333.75;;;23.17;42.55
49463;BME280;35357;51.722;0.500;2022-08-21T12:12:09;101332.17;;;23.30;42.01
49463;BME280;35357;51.722;0.500;2022-08-21T12:14:40;101333.52;;;24.10;41.18
49463;BME280;35357;51.722;0.500;2022-08-21T12:17:16;101335.31;;;23.02;43.12
49463;BME280;35357;51.722;0.500;2022-08-21T12:19:44;101333.48;;;21.35;46.64
49463;BME280;35357;51.722;0.500;2022-08-21T12:22:13;101331.46;;;22.19;45.44
49463;BME280;35357;51.722;0.500;2022-08-21T12:24:42;101333.37;;;21.82;46.41
49463;BME280;35357;51.722;0.500;2022-08-21T12:27:20;101334.80;;;21.28;48.32
49463;BME280;35357;51.722;0.500;2022-08-21T12:29:50;101330.32;;;22.42;44.84
49463;BME280;35357;51.722;0.500;2022-08-21T12:32:24;101332.76;;;23.74;43.25
49463;BME280;35357;51.722;0.500;2022-08-21T12:34:59;101337.96;;;22.91;45.20
49463;BME280;35357;51.722;0.500;2022-08-21T12:37:42;101332.09;;;22.36;44.96
49463;BME280;35357;51.722;0.500;2022-08-21T12:42:59;101336.53;;;23.32;44.93
49463;BME280;35357;51.722;0.500;2022-08-21T12:45:30;101331.14;;;23.55;44.47
49463;BME280;35357;51.722;0.500;2022-08-21T12:48:01;101327.51;;;23.74;43.94
49463;BME280;35357;51.722;0.500;2022-08-21T12:50:36;101330.66;;;23.13;44.74
49463;BME280;35357;51.722;0.500;2022-08-21T12:53:07;101336.19;;;24.22;43.33
49463;BME280;35357;51.722;0.500;2022-08-21T12:55:41;101336.60;;;23.63;43.22
49463;BME280;35357;51.722;0.500;2022-08-21T12:58:17;101337.98;;;24.09;42.13
49463;BME280;35357;51.722;0.500;2022-08-21T13:00:49;101337.98;;;23.13;42.49
49463;BME280;35357;51.722;0.500;2022-08-21T13:03:18;101334.28;;;24.45;40.63
49463;BME280;35357;51.722;0.500;2022-08-21T13:05:45;101327.75;;;24.27;40.09
49463;BME280;35357;51.722;0.500;2022-08-21T13:08:13;101327.26;;;24.13;41.07